Time;durP1;ratioP1;P1;durP2;ratioP2;P2;SDS_P1;SDS_P2;PMS_P1;PMS_P2;Temp;Humidity;BMP_temperature;BMP_pressure;BME280_temperature;BME280_humidity;BME280_pressure;Samples;Min_cycle;Max_cycle;Signal;HPM_P1;HPM_P2
2022/05/25 00:01:50;;;;;;;6.57;5.07;;;10.80;99.90;;;;;;5037213;28;20040;-63
2022/05/25 00:04:17;;;;;;;6.10;5.18;;;10.60;99.90;;;;;;5037498;28;20041;-62
2022/05/25 00:06:43;;;;;;;7.38;5.63;;;10.60;99.90;;;;;;5054719;28;20060;-63
2022/05/25 00:09:09;;;;;;;10.27;5.90;;;10.70;99.90;;;;;;5037165;28;20084;-63
2022/05/25 00:11:34;;;;;;;7.38;5.47;;;10.70;99.90;;;;;;5053367;28;20134;-64
2022/05/25 00:14:01;;;;;;;6.18;5.32;;;10.60;99.90;;;;;;5053801;28;20049;-62
2022/05/25 00:16:26;;;;;;;9.30;6.03;;;10.60;99.90;;;;;;5054840;28;20040;-63
2022/05/25 00:21:36;;;;;;;8.02;5.57;;;10.40;99.90;;;;;;5054240;28;20486;-62
2022/05/25 00:24:02;;;;;;;7.57;6.47;;;;;;;;;;5036698;28;20060;-67
2022/05/25 00:26:28;;;;;;;9.45;6.38;;;10.40;99.90;;;;;;5054915;28;20052;-63
2022/05/25 00:28:54;;;;;;;11.93;6.18;;;10.50;99.90;;;;;;5053419;28;20049;-63
2022/05/25 00:31:20;;;;;;;7.95;5.57;;;10.40;99.90;;;;;;5054777;28;20051;-63
2022/05/25 00:33:45;;;;;;;8.27;6.03;;;10.20;99.90;;;;;;5054717;28;20409;-63
2022/05/25 00:36:11;;;;;;;8.15;6.20;;;10.30;99.90;;;;;;5054035;28;20037;-63
2022/05/25 00:38:36;;;;;;;9.95;6.35;;;10.20;99.90;;;;;;5052876;28;20057;-63
2022/05/25 00:41:02;;;;;;;12.27;6.72;;;10.30;99.90;;;;;;5052974;28;20041;-63
2022/05/25 00:43:28;;;;;;;8.48;7.03;;;10.30;99.90;;;;;;5053256;28;20041;-63
2022/05/25 00:46:00;;;;;;;11.30;7.35;;;10.40;99.90;;;;;;5052989;28;20033;-63
2022/05/25 00:48:37;;;;;;;9.50;7.28;;;10.50;99.90;;;;;;5054527;28;20068;-63
2022/05/25 00:51:15;;;;;;;10.32;7.22;;;10.30;99.90;;;;;;5053839;28;20040;-63
2022/05/25 00:53:47;;;;;;;10.52;8.20;;;10.30;99.90;;;;;;5054278;28;20044;-63
2022/05/25 00:56:16;;;;;;;9.10;7.35;;;10.20;99.90;;;;;;5052746;28;20160;-64
2022/05/25 00:58:47;;;;;;;9.48;7.57;;;10.10;99.90;;;;;;5052978;28;20168;-63
2022/05/25 01:01:13;;;;;;;10.60;8.23;;;10.00;99.90;;;;;;5052187;28;20060;-63
2022/05/25 01:03:38;;;;;;;11.20;7.47;;;10.00;99.90;;;;;;5052331;28;20045;-63
2022/05/25 01:06:33;;;;;;;10.38;7.95;;;9.90;99.90;;;;;;5052329;28;20053;-63
2022/05/25 01:09:07;;;;;;;14.48;8.30;;;10.00;99.90;;;;;;5054104;28;20048;-63
2022/05/25 01:11:45;;;;;;;11.00;7.50;;;9.90;99.90;;;;;;5053761;28;20045;-63
2022/05/25 01:14:42;;;;;;;10.73;8.40;;;9.90;99.90;;;;;;5053669;28;20075;-63
2022/05/25 01:17:32;;;;;;;10.57;8.13;;;10.00;99.90;;;;;;5052770;28;20422;-63
2022/05/25 01:20:15;;;;;;;12.80;8.57;;;9.90;99.90;;;;;;5035314;28;20041;-66
2022/05/25 01:23:19;;;;;;;12.65;8.65;;;9.80;99.90;;;;;;5035548;28;20043;-63
2022/05/25 01:26:15;;;;;;;12.75;9.43;;;10.00;99.90;;;;;;5052371;28;20037;-63
2022/05/25 01:29:03;;;;;;;14.57;9.65;;;10.00;99.90;;;;;;5051972;28;20094;-63
2022/05/25 01:32:02;;;;;;;10.95;7.57;;;9.80;99.90;;;;;;5051828;28;20090;-63
2022/05/25 01:34:48;;;;;;;11.23;8.25;;;9.90;99.90;;;;;;5053272;28;20119;-63
2022/05/25 01:37:20;;;;;;;;;;;9.90;99.90;;;;;;5036005;28;20049;-63
2022/05/25 01:39:52;;;;;;;10.55;8.57;;;;;;;;;;5053289;28;19921;-63
2022/05/25 01:42:18;;;;;;;13.95;8.70;;;;;;;;;;5052161;28;20036;-62
2022/05/25 01:44:51;;;;;;;9.88;8.60;;;9.90;99.90;;;;;;5053072;28;20128;-62
2022/05/25 01:47:17;;;;;;;17.20;10.63;;;9.80;99.90;;;;;;5052574;28;20079;-63
2022/05/25 01:49:55;;;;;;;10.73;8.82;;;;;;;;;;5035216;28;20095;-63
2022/05/25 01:52:29;;;;;;;12.57;8.93;;;9.70;99.90;;;;;;5051878;28;20071;-62
2022/05/25 01:54:59;;;;;;;12.20;8.97;;;9.80;99.90;;;;;;5051796;28;20040;-63
2022/05/25 01:57:31;;;;;;;12.57;8.38;;;9.50;99.90;;;;;;5051617;28;20037;-62
2022/05/25 01:59:57;;;;;;;12.50;9.10;;;;;;;;;;5052493;28;20044;-64
2022/05/25 02:05:10;;;;;;;11.13;8.48;;;9.70;99.90;;;;;;5051531;28;20088;-62
2022/05/25 02:07:46;;;;;;;11.93;9.07;;;;;;;;;;5053166;28;20040;-62
2022/05/25 02:10:31;;;;;;;10.82;9.30;;;9.80;99.90;;;;;;5051470;28;20052;-66
2022/05/25 02:13:10;;;;;;;13.23;8.80;;;9.70;99.90;;;;;;5034359;28;20049;-62
2022/05/25 02:15:51;;;;;;;11.25;7.95;;;9.70;99.90;;;;;;5035223;28;20398;-64
2022/05/25 02:18:44;;;;;;;11.80;9.23;;;9.60;99.90;;;;;;5051088;28;20072;-63
2022/05/25 02:21:40;;;;;;;14.13;9.63;;;9.60;99.90;;;;;;5052610;28;20545;-63
2022/05/25 02:24:21;;;;;;;12.80;9.38;;;9.60;99.90;;;;;;5051382;28;20439;-63
2022/05/25 02:26:52;;;;;;;13.30;8.63;;;9.60;99.90;;;;;;5052547;28;20090;-62
2022/05/25 02:29:27;;;;;;;13.75;9.07;;;9.50;99.90;;;;;;5051047;28;20040;-62
2022/05/25 02:32:14;;;;;;;12.63;9.43;;;9.60;99.90;;;;;;5034900;28;20041;-62
2022/05/25 02:34:45;;;;;;;12.55;9.70;;;9.50;99.90;;;;;;5051383;28;20045;-64
2022/05/25 02:37:12;;;;;;;14.15;10.25;;;9.50;99.90;;;;;;5051213;28;20048;-63
2022/05/25 02:39:38;;;;;;;12.30;10.32;;;9.50;99.90;;;;;;5052299;28;20044;-63
2022/05/25 02:42:12;;;;;;;12.40;9.48;;;9.60;99.90;;;;;;5051182;28;20040;-62
2022/05/25 02:44:38;;;;;;;14.27;10.63;;;9.60;99.90;;;;;;5034419;28;20044;-62
2022/05/25 02:47:04;;;;;;;12.00;9.32;;;9.40;99.90;;;;;;5052286;28;20434;-63
2022/05/25 02:49:30;;;;;;;15.20;9.55;;;;;;;;;;5050900;28;20037;-63
2022/05/25 02:51:55;;;;;;;14.32;9.95;;;9.40;99.90;;;;;;5051156;28;20091;-63
2022/05/25 02:54:22;;;;;;;14.18;10.10;;;9.40;99.90;;;;;;5051025;28;20048;-63
2022/05/25 02:56:49;;;;;;;15.18;9.80;;;9.30;99.90;;;;;;5052313;28;20041;-62
2022/05/25 02:59:15;;;;;;;14.82;10.18;;;9.20;99.90;;;;;;5044499;28;20052;-62
2022/05/25 03:01:41;;;;;;;16.70;11.13;;;;;;;;;;5032457;28;20041;-63
2022/05/25 03:04:07;;;;;;;14.38;10.57;;;;;;;;;;5032148;28;20076;-65
2022/05/25 03:06:33;;;;;;;12.98;10.18;;;;;;;;;;5030347;28;20053;-63
2022/05/25 03:08:59;;;;;;;13.27;9.85;;;;;;;;;;5031996;28;20042;-62
2022/05/25 03:11:24;;;;;;;16.00;10.93;;;9.40;99.90;;;;;;5032248;28;20041;-62
2022/05/25 03:13:51;;;;;;;14.55;11.20;;;9.40;99.90;;;;;;5032065;28;20130;-62
2022/05/25 03:16:19;;;;;;;15.02;11.48;;;9.40;99.90;;;;;;5030963;28;20384;-63
2022/05/25 03:18:45;;;;;;;16.40;11.02;;;9.40;99.90;;;;;;5031709;28;20076;-62
2022/05/25 03:21:11;;;;;;;14.82;10.45;;;9.30;99.90;;;;;;5031983;28;20075;-63
2022/05/25 03:23:37;;;;;;;14.68;10.82;;;9.40;99.90;;;;;;5030846;28;20036;-62
2022/05/25 03:26:03;;;;;;;13.48;10.60;;;9.40;99.90;;;;;;5034976;28;20037;-63
2022/05/25 03:28:29;;;;;;;16.58;11.35;;;;;;;;;;5036080;28;20448;-62
2022/05/25 03:30:55;;;;;;;17.45;11.70;;;;;;;;;;5035523;28;20148;-62
2022/05/25 03:33:21;;;;;;;15.30;11.32;;;;;;;;;;5034524;28;20042;-63
2022/05/25 03:35:46;;;;;;;18.00;12.43;;;9.30;99.90;;;;;;5034218;28;20099;-62
2022/05/25 03:38:12;;;;;;;17.80;12.27;;;9.30;99.90;;;;;;5034178;28;20045;-63
2022/05/25 03:40:39;;;;;;;15.93;10.57;;;9.30;99.90;;;;;;5034272;28;20041;-63
2022/05/25 03:43:06;;;;;;;17.60;12.02;;;9.40;99.90;;;;;;5035659;28;20120;-63
2022/05/25 03:45:32;;;;;;;14.68;11.77;;;;;;;;;;5041331;28;20553;-62
2022/05/25 03:47:57;;;;;;;16.60;11.07;;;9.40;99.90;;;;;;5055256;28;20111;-63
2022/05/25 03:50:23;;;;;;;17.17;11.95;;;;;;;;;;5053952;28;20406;-65
2022/05/25 03:52:50;;;;;;;17.15;11.45;;;;;;;;;;5053799;28;20402;-63
2022/05/25 03:55:16;;;;;;;18.63;12.70;;;9.50;99.90;;;;;;5055390;28;20041;-62
2022/05/25 03:57:41;;;;;;;16.13;11.82;;;9.50;99.90;;;;;;5055323;28;20080;-62
2022/05/25 04:00:08;;;;;;;19.17;12.63;;;9.60;99.90;;;;;;5053837;28;20083;-64
2022/05/25 04:02:34;;;;;;;17.27;12.27;;;9.50;99.90;;;;;;5054974;28;20383;-64
2022/05/25 04:05:08;;;;;;;21.13;13.25;;;9.60;99.90;;;;;;5036842;28;20102;-63
2022/05/25 04:07:40;;;;;;;18.45;11.85;;;9.60;99.90;;;;;;5053543;28;20055;-62
2022/05/25 04:10:07;;;;;;;19.27;11.40;;;9.80;99.90;;;;;;5054119;28;20048;-62
2022/05/25 04:12:33;;;;;;;16.58;11.57;;;9.60;99.90;;;;;;5054062;28;20040;-63
2022/05/25 04:14:59;;;;;;;19.63;12.68;;;9.60;99.90;;;;;;5054819;28;20037;-63
2022/05/25 04:17:25;;;;;;;17.55;12.88;;;;;;;;;;5053232;28;20037;-63
2022/05/25 04:19:50;;;;;;;16.05;11.18;;;9.70;99.90;;;;;;5054485;28;20037;-63
2022/05/25 04:22:17;;;;;;;18.20;12.10;;;9.60;99.90;;;;;;5036863;28;20131;-62
2022/05/25 04:24:43;;;;;;;16.02;11.73;;;9.70;99.90;;;;;;5054668;28;20191;-66
2022/05/25 04:27:08;;;;;;;14.80;11.55;;;9.90;99.90;;;;;;5049559;28;20037;-66
2022/05/25 04:29:37;;;;;;;15.50;11.20;;;;;;;;;;5033363;28;20048;-65
2022/05/25 04:32:04;;;;;;;15.27;11.05;;;;;;;;;;5041549;28;20493;-64
2022/05/25 04:34:30;;;;;;;16.60;10.80;;;;;;;;;;5045521;28;20389;-65
2022/05/25 04:37:48;;;;;;;17.27;11.98;;;10.10;99.90;;;;;;5028490;28;20053;-65
2022/05/25 04:39:41;;;;;;;;;;;;;;;;;;5029969;28;20048;-66
2022/05/25 04:42:07;;;;;;;15.00;10.90;;;10.30;99.90;;;;;;5029283;28;19925;-64
2022/05/25 04:44:33;;;;;;;14.70;9.65;;;;;;;;;;5029460;28;20052;-66
2022/05/25 04:46:59;;;;;;;14.30;10.02;;;;;;;;;;5047670;28;20123;-65
2022/05/25 04:49:26;;;;;;;13.82;10.05;;;11.00;99.90;;;;;;5049068;28;20156;-64
2022/05/25 04:51:52;;;;;;;14.02;9.48;;;10.80;99.90;;;;;;5049243;28;20115;-64
2022/05/25 04:54:17;;;;;;;13.93;9.90;;;10.80;99.90;;;;;;5049148;28;20045;-64
2022/05/25 04:59:28;;;;;;;14.35;9.82;;;;;;;;;;5043150;28;20064;-64
2022/05/25 05:01:54;;;;;;;13.90;9.27;;;11.50;99.90;;;;;;5044344;28;20045;-64
2022/05/25 05:04:20;;;;;;;13.27;8.88;;;;;;;;;;5043720;28;20483;-66
2022/05/25 05:06:47;;;;;;;12.25;8.02;;;12.40;99.90;;;;;;5026628;28;20132;-65
2022/05/25 05:09:13;;;;;;;15.93;9.05;;;;;;;;;;5037819;28;20473;-64
2022/05/25 05:11:39;;;;;;;9.77;7.57;;;;;;;;;;5042189;28;20060;-64
2022/05/25 05:14:05;;;;;;;11.38;7.93;;;;;;;;;;5043322;28;20047;-63
2022/05/25 05:16:32;;;;;;;11.45;8.07;;;;;;;;;;5042984;28;20344;-65
2022/05/25 05:18:57;;;;;;;11.25;7.28;;;13.80;99.90;;;;;;5046003;28;20493;-65
2022/05/25 05:21:23;;;;;;;11.65;7.40;;;;;;;;;;5046659;28;20471;-64
2022/05/25 05:23:49;;;;;;;11.15;7.05;;;;;;;;;;5045539;28;20546;-65
2022/05/25 05:26:15;;;;;;;11.20;7.28;;;14.40;99.90;;;;;;5046897;28;20036;-65
2022/05/25 05:28:42;;;;;;;12.25;8.48;;;14.70;99.90;;;;;;5037885;28;20080;-64
2022/05/25 05:31:08;;;;;;;9.35;6.65;;;15.00;99.90;;;;;;5023616;28;20044;-66
2022/05/25 05:33:35;;;;;;;12.20;8.43;;;15.00;99.90;;;;;;5025517;28;20124;-64
2022/05/25 05:36:18;;;;;;;9.32;7.22;;;15.40;99.90;;;;;;5031589;28;20041;-65
2022/05/25 05:38:59;;;;;;;12.38;7.60;;;15.70;99.90;;;;;;5030429;28;20053;-62
2022/05/25 05:41:30;;;;;;;12.38;7.60;;;15.70;99.90;;;;;;5028986;28;20411;-65
2022/05/25 05:43:57;;;;;;;9.85;7.18;;;15.70;99.90;;;;;;5033938;28;20036;-64
2022/05/25 05:46:23;;;;;;;9.77;7.10;;;15.80;99.90;;;;;;5049155;28;20029;-64
2022/05/25 05:48:49;;;;;;;8.23;6.65;;;15.50;99.90;;;;;;5050286;28;20132;-64
2022/05/25 05:51:15;;;;;;;10.13;7.75;;;15.50;99.90;;;;;;5051110;28;20041;-63
2022/05/25 05:53:41;;;;;;;11.70;6.90;;;15.40;99.90;;;;;;5051762;28;20045;-64
2022/05/25 05:56:07;;;;;;;10.13;7.13;;;15.40;99.90;;;;;;5050610;28;20041;-64
2022/05/25 05:58:33;;;;;;;11.82;7.30;;;15.10;99.90;;;;;;5052799;28;20033;-64
2022/05/25 06:00:58;;;;;;;8.43;7.18;;;15.00;99.90;;;;;;5052285;28;20098;-64
2022/05/25 06:03:24;;;;;;;12.90;7.35;;;15.00;99.90;;;;;;5032143;28;20103;-64
2022/05/25 06:05:50;;;;;;;9.05;7.05;;;14.70;99.90;;;;;;5032333;28;20092;-62
2022/05/25 06:08:23;;;;;;;9.25;6.47;;;15.10;99.90;;;;;;5051500;28;20045;-64
2022/05/25 06:10:49;;;;;;;9.13;6.15;;;14.90;99.90;;;;;;5051030;28;20514;-65
2022/05/25 06:13:14;;;;;;;8.75;7.10;;;15.10;99.90;;;;;;5042649;28;20340;-64
2022/05/25 06:21:16;;;;;;;12.63;7.40;;;15.90;99.90;;;;;;5032127;28;20494;-64
2022/05/25 06:23:41;;;;;;;9.80;6.82;;;15.90;99.90;;;;;;5032171;28;20585;-61
2022/05/25 06:26:07;;;;;;;11.35;7.38;;;16.10;99.90;;;;;;5032525;28;20041;-63
2022/05/25 06:28:33;;;;;;;8.70;6.63;;;15.90;99.90;;;;;;5036966;28;20048;-63
2022/05/25 06:30:59;;;;;;;12.93;6.82;;;15.90;99.90;;;;;;5034290;28;20071;-66
2022/05/25 06:33:25;;;;;;;10.23;7.60;;;16.10;99.90;;;;;;5027649;28;20056;-65
2022/05/25 06:35:50;;;;;;;13.50;7.10;;;16.00;99.90;;;;;;5030471;28;20036;-65
2022/05/25 06:38:16;;;;;;;8.95;6.82;;;16.00;99.90;;;;;;5027500;28;20049;-64
2022/05/25 06:40:42;;;;;;;12.02;7.25;;;15.80;99.90;;;;;;5042938;28;20495;-66
2022/05/25 06:43:07;;;;;;;10.02;8.25;;;15.70;99.90;;;;;;5027812;28;20075;-65
2022/05/25 06:45:33;;;;;;;14.07;8.10;;;15.50;99.90;;;;;;5040872;28;20064;-65
2022/05/25 06:47:58;;;;;;;12.27;7.82;;;15.40;99.90;;;;;;5033883;28;20486;-63
2022/05/25 06:50:25;;;;;;;12.13;7.97;;;15.30;99.90;;;;;;5039837;28;20127;-66
2022/05/25 06:52:51;;;;;;;11.93;8.07;;;15.20;99.90;;;;;;5010859;28;20530;-65
2022/05/25 06:55:17;;;;;;;12.93;7.57;;;;;;;;;;5034172;28;20052;-64
2022/05/25 06:57:43;;;;;;;13.93;8.68;;;15.10;99.90;;;;;;5026967;28;20045;-64
2022/05/25 07:00:09;;;;;;;13.85;8.15;;;;;;;;;;5031041;28;20067;-64
2022/05/25 07:02:34;;;;;;;11.77;7.80;;;15.10;99.90;;;;;;5044211;28;20535;-65
2022/05/25 07:05:00;;;;;;;12.63;6.75;;;15.00;99.90;;;;;;5049421;28;20064;-64
2022/05/25 07:07:26;;;;;;;12.18;7.03;;;15.20;99.90;;;;;;5050517;28;20825;-65
2022/05/25 07:09:52;;;;;;;8.77;7.18;;;14.90;99.90;;;;;;5048030;28;20081;-65
2022/05/25 07:12:18;;;;;;;10.18;7.25;;;15.10;99.90;;;;;;5047534;28;20055;-65
2022/05/25 07:14:44;;;;;;;18.55;8.00;;;;;;;;;;5039138;28;20056;-65
2022/05/25 07:17:10;;;;;;;10.75;6.00;;;;;;;;;;5036072;28;20057;-65
2022/05/25 07:19:36;;;;;;;8.25;6.30;;;;;;;;;;5044172;28;20063;-65
2022/05/25 07:22:08;;;;;;;10.68;7.28;;;14.90;99.90;;;;;;5043525;28;20052;-65
2022/05/25 07:24:34;;;;;;;12.60;7.03;;;;;;;;;;5049261;28;20062;-63
2022/05/25 07:27:00;;;;;;;10.00;6.85;;;;;;;;;;5050566;28;20143;-64
2022/05/25 07:29:26;;;;;;;10.93;6.53;;;15.00;99.90;;;;;;5035715;28;20052;-65
2022/05/25 07:31:56;;;;;;;12.45;7.15;;;14.90;99.90;;;;;;5031411;28;20060;-64
2022/05/25 07:34:24;;;;;;;12.85;6.18;;;15.00;99.90;;;;;;5020270;28;20088;-64
2022/05/25 07:36:57;;;;;;;9.25;6.40;;;15.40;99.90;;;;;;5045467;28;20052;-65
2022/05/25 07:39:28;;;;;;;10.18;6.85;;;15.10;99.90;;;;;;5048139;28;20044;-63
2022/05/25 07:41:58;;;;;;;9.18;5.95;;;15.20;99.90;;;;;;5042956;28;20096;-63
2022/05/25 07:44:28;;;;;;;10.85;5.88;;;15.20;99.90;;;;;;5031549;28;20214;-65
2022/05/25 07:46:54;;;;;;;14.05;6.28;;;;;;;;;;5035958;28;20803;-65
2022/05/25 07:49:23;;;;;;;10.13;6.05;;;15.20;99.90;;;;;;5049790;28;20443;-64
2022/05/25 07:51:49;;;;;;;9.45;6.50;;;;;;;;;;5048136;28;20148;-64
2022/05/25 07:54:15;;;;;;;13.43;6.03;;;;;;;;;;5046221;28;20060;-64
2022/05/25 07:56:40;;;;;;;8.38;6.05;;;15.30;99.90;;;;;;5035500;28;20049;-67
2022/05/25 07:59:09;;;;;;;10.93;6.88;;;15.40;99.90;;;;;;5047787;28;20052;-66
2022/05/25 08:07:23;;;;;;;7.68;5.50;;;15.50;99.90;;;;;;5032339;28;20057;-64
2022/05/25 08:09:51;;;;;;;10.15;6.30;;;15.50;99.90;;;;;;5033312;28;20156;-65
2022/05/25 08:12:17;;;;;;;7.55;4.97;;;15.80;99.90;;;;;;5031564;28;20056;-64
2022/05/25 08:14:43;;;;;;;14.27;5.53;;;;;;;;;;5038713;28;20431;-65
2022/05/25 08:17:09;;;;;;;10.48;5.30;;;;;;;;;;5040270;28;20083;-65
2022/05/25 08:19:35;;;;;;;9.95;5.18;;;15.90;99.90;;;;;;5037550;28;20098;-65
2022/05/25 08:22:01;;;;;;;6.68;4.95;;;16.00;99.90;;;;;;5030476;28;20041;-64
2022/05/25 08:24:29;;;;;;;7.20;4.13;;;16.20;99.90;;;;;;5029404;28;20049;-68
2022/05/25 08:26:56;;;;;;;8.73;4.95;;;;;;;;;;5029519;28;20045;-66
2022/05/25 08:29:24;;;;;;;8.27;4.28;;;16.10;99.90;;;;;;5031025;28;20127;-66
2022/05/25 08:31:53;;;;;;;5.93;4.18;;;;;;;;;;5037742;28;20057;-65
2022/05/25 08:34:18;;;;;;;4.60;3.22;;;16.00;99.90;;;;;;5035057;28;20529;-66
2022/05/25 08:36:44;;;;;;;6.90;3.90;;;;;;;;;;5036954;28;20395;-66
2022/05/25 08:39:10;;;;;;;6.25;4.20;;;;;;;;;;5034972;28;20128;-66
2022/05/25 08:41:37;;;;;;;7.03;4.22;;;15.90;99.90;;;;;;5036880;28;20051;-66
2022/05/25 08:44:04;;;;;;;5.72;4.18;;;16.00;99.90;;;;;;5036380;28;20059;-63
2022/05/25 08:46:31;;;;;;;6.35;4.03;;;16.00;99.90;;;;;;5035947;28;20040;-62
2022/05/25 08:49:02;;;;;;;8.35;6.05;;;16.30;99.90;;;;;;5034131;28;20040;-63
2022/05/25 08:51:28;;;;;;;8.27;5.05;;;16.30;99.90;;;;;;5046796;28;21626;-64
2022/05/25 08:53:57;;;;;;;5.80;3.50;;;16.40;99.90;;;;;;5032471;28;20059;-64
2022/05/25 08:56:38;;;;;;;7.68;5.30;;;16.50;99.90;;;;;;5042042;28;20565;-65
2022/05/25 08:59:09;;;;;;;10.70;5.45;;;16.40;99.90;;;;;;5032305;28;20082;-65
2022/05/25 09:01:47;;;;;;;7.78;4.50;;;16.70;99.90;;;;;;5031170;28;20071;-63
2022/05/25 09:04:38;;;;;;;7.47;4.63;;;16.30;99.90;;;;;;5035275;28;20256;-63
2022/05/25 09:07:19;;;;;;;7.10;4.35;;;16.50;99.90;;;;;;5036920;28;20060;-64
2022/05/25 09:09:51;;;;;;;10.35;4.57;;;16.50;99.90;;;;;;5037905;28;20170;-64
2022/05/25 09:12:44;;;;;;;7.18;4.28;;;16.40;99.90;;;;;;5036972;28;20076;-63
2022/05/25 09:15:32;;;;;;;8.38;3.88;;;16.20;99.90;;;;;;5032160;28;20612;-64
2022/05/25 09:18:13;;;;;;;7.13;3.20;;;16.40;99.90;;;;;;5038374;28;20040;-65
2022/05/25 09:20:44;;;;;;;5.82;3.30;;;16.30;99.90;;;;;;5039361;28;20094;-65
2022/05/25 09:23:12;;;;;;;5.20;3.80;;;16.40;99.90;;;;;;5036865;28;20087;-65
2022/05/25 09:25:38;;;;;;;4.95;3.92;;;;;;;;;;5040283;28;20037;-65
2022/05/25 09:28:30;;;;;;;6.85;5.03;;;16.60;99.90;;;;;;5033977;28;20552;-64
2022/05/25 09:30:58;;;;;;;6.10;4.72;;;16.60;99.90;;;;;;5026699;28;20136;-65
2022/05/25 09:33:52;;;;;;;6.60;4.57;;;16.70;99.90;;;;;;5035243;28;20357;-65
2022/05/25 09:36:25;;;;;;;9.10;5.72;;;16.90;99.90;;;;;;5035982;28;20453;-64
2022/05/25 09:39:21;;;;;;;6.28;4.68;;;16.80;99.90;;;;;;5039434;28;20097;-65
2022/05/25 09:41:47;;;;;;;;;;;16.90;99.90;;;;;;5031605;28;20067;-65
2022/05/25 09:44:18;;;;;;;5.75;4.57;;;16.80;99.90;;;;;;5029368;28;20366;-65
2022/05/25 09:46:52;;;;;;;6.43;5.53;;;16.80;99.90;;;;;;5025576;28;20072;-67
2022/05/25 09:49:39;;;;;;;5.57;4.50;;;16.90;99.90;;;;;;5026575;28;20073;-65
2022/05/25 09:52:13;;;;;;;9.38;4.40;;;17.20;99.90;;;;;;5029966;28;20784;-68
2022/05/25 09:54:48;;;;;;;7.55;3.83;;;16.90;99.90;;;;;;5027847;28;20145;-66
2022/05/25 09:57:33;;;;;;;10.75;4.35;;;16.80;99.90;;;;;;5027106;28;20044;-66
2022/05/25 10:00:08;;;;;;;9.10;4.60;;;16.80;99.90;;;;;;5026815;28;20143;-66
2022/05/25 10:02:59;;;;;;;7.55;4.53;;;16.70;99.90;;;;;;5026002;28;20052;-66
2022/05/25 10:05:28;;;;;;;7.30;4.40;;;16.70;99.90;;;;;;5029269;28;20060;-67
2022/05/25 10:08:09;;;;;;;8.02;4.72;;;16.70;99.90;;;;;;5027784;28;20045;-65
2022/05/25 10:10:50;;;;;;;8.85;5.25;;;17.00;99.90;;;;;;5028595;28;20052;-67
2022/05/25 10:13:28;;;;;;;10.15;4.72;;;17.10;99.90;;;;;;5045053;28;20040;-67
2022/05/25 10:15:54;;;;;;;7.40;5.10;;;17.40;99.90;;;;;;5041620;28;20045;-66
2022/05/25 10:18:35;;;;;;;9.68;5.32;;;17.30;99.90;;;;;;5034749;28;20049;-66
2022/05/25 10:21:01;;;;;;;5.97;4.20;;;17.20;99.90;;;;;;5025885;28;20106;-67
2022/05/25 10:23:27;;;;;;;7.68;4.15;;;19.50;99.90;;;;;;5028589;28;21723;-64
2022/05/25 10:25:58;;;;;;;6.05;3.95;;;17.20;99.90;;;;;;5045767;28;20048;-66
2022/05/25 10:28:28;;;;;;;5.57;4.15;;;17.10;99.90;;;;;;5027539;28;20566;-67
2022/05/25 10:36:56;;;;;;;10.15;5.38;;;17.50;99.90;;;;;;5035684;28;20060;-65
2022/05/25 10:39:28;;;;;;;;;;;17.40;99.90;;;;;;5037602;28;20048;-65
2022/05/25 10:42:04;;;;;;;7.43;3.55;;;17.30;99.90;;;;;;5035843;28;20724;-68
2022/05/25 10:44:43;;;;;;;7.22;3.75;;;17.40;99.90;;;;;;5031883;28;20052;-66
2022/05/25 10:47:24;;;;;;;9.15;5.82;;;17.30;99.90;;;;;;5038336;28;20085;-64
2022/05/25 10:49:52;;;;;;;7.20;5.28;;;17.40;99.90;;;;;;5034495;28;20631;-66
2022/05/25 10:52:41;;;;;;;7.50;4.80;;;17.40;99.90;;;;;;5028412;28;21974;-66
2022/05/25 10:55:07;;;;;;;8.02;5.70;;;17.30;99.90;;;;;;5033963;28;20045;-66
2022/05/25 10:57:48;;;;;;;8.35;6.05;;;17.40;99.90;;;;;;5034021;28;20064;-65
2022/05/25 11:00:20;;;;;;;9.30;6.60;;;17.40;99.90;;;;;;5034431;28;20280;-66
2022/05/25 11:03:28;;;;;;;11.10;8.40;;;17.40;99.90;;;;;;5035853;28;20048;-67
2022/05/25 11:06:20;;;;;;;7.28;5.53;;;17.10;99.90;;;;;;5030888;28;20061;-66
2022/05/25 11:09:05;;;;;;;9.95;6.32;;;17.20;99.90;;;;;;5035508;28;20131;-65
2022/05/25 11:11:50;;;;;;;8.13;7.25;;;17.00;99.90;;;;;;5014981;28;20876;-66
2022/05/25 11:14:19;;;;;;;;;;;17.60;99.90;;;;;;5034171;28;20040;-64
2022/05/25 11:17:02;;;;;;;10.93;6.60;;;17.10;99.90;;;;;;5029334;28;19968;-67
2022/05/25 11:19:28;;;;;;;8.57;6.90;;;;;;;;;;5032880;28;20067;-66
2022/05/25 11:22:27;;;;;;;14.13;7.35;;;16.30;99.90;;;;;;5030365;28;20049;-65
2022/05/25 11:25:05;;;;;;;17.35;9.65;;;16.00;99.90;;;;;;5034361;28;20183;-66
2022/05/25 11:28:08;;;;;;;8.00;5.78;;;15.80;99.90;;;;;;5035167;28;20041;-65
2022/05/25 11:30:44;;;;;;;11.85;6.15;;;15.60;99.90;;;;;;5033299;28;20099;-65
2022/05/25 11:33:09;;;;;;;11.98;5.32;;;;;;;;;;5032596;28;20144;-65
2022/05/25 11:36:04;;;;;;;8.27;5.25;;;15.40;99.90;;;;;;5033528;28;20044;-64
2022/05/25 11:38:58;;;;;;;7.93;5.17;;;15.30;99.90;;;;;;4999099;28;20408;-65
2022/05/25 11:41:46;;;;;;;10.13;6.00;;;15.20;99.90;;;;;;5032170;28;20094;-67
2022/05/25 11:44:12;;;;;;;8.10;5.70;;;;;;;;;;5033788;28;20733;-63
2022/05/25 11:46:38;;;;;;;13.50;6.47;;;;;;;;;;5033236;28;20044;-66
2022/05/25 11:49:04;;;;;;;9.20;5.90;;;;;;;;;;5033448;28;20051;-65
2022/05/25 11:51:37;;;;;;;10.82;5.30;;;15.50;99.90;;;;;;5043608;28;20067;-64
2022/05/25 11:54:21;;;;;;;6.55;5.18;;;15.70;99.90;;;;;;5035712;28;20044;-66
2022/05/25 11:57:05;;;;;;;5.22;4.07;;;15.70;99.90;;;;;;5039381;28;20463;-63
2022/05/25 11:59:36;;;;;;;6.75;4.65;;;15.80;99.90;;;;;;5038121;28;20127;-66
2022/05/25 12:02:08;;;;;;;6.35;4.55;;;15.90;99.90;;;;;;5036909;28;20194;-65
2022/05/25 12:05:12;;;;;;;8.98;5.05;;;15.90;99.90;;;;;;5045063;28;20048;-65
2022/05/25 12:08:19;;;;;;;5.95;4.20;;;16.20;99.90;;;;;;5019966;28;20056;-66
2022/05/25 12:10:47;;;;;;;11.38;3.78;;;16.40;99.90;;;;;;5036517;28;20093;-66
2022/05/25 12:13:26;;;;;;;4.70;2.10;;;16.50;99.90;;;;;;5036573;28;20533;-66
2022/05/25 12:16:21;;;;;;;3.72;1.80;;;16.70;99.90;;;;;;5037748;28;20078;-68
2022/05/25 12:19:14;;;;;;;3.07;1.07;;;16.70;99.90;;;;;;5035157;28;20064;-66
2022/05/25 12:21:50;;;;;;;4.25;1.08;;;16.80;99.90;;;;;;5037533;28;20297;-66
2022/05/25 12:24:30;;;;;;;3.00;0.90;;;16.90;99.90;;;;;;5039093;28;20068;-68
2022/05/25 12:27:00;;;;;;;4.45;1.52;;;16.90;99.90;;;;;;5032378;28;20041;-67
2022/05/25 12:29:37;;;;;;;4.35;1.27;;;16.90;99.90;;;;;;5030980;28;20406;-67
2022/05/25 12:32:05;;;;;;;5.35;1.13;;;17.00;99.90;;;;;;5033119;28;20059;-67
2022/05/25 12:34:41;;;;;;;8.57;1.98;;;17.10;99.90;;;;;;5035716;28;20040;-66
2022/05/25 12:37:10;;;;;;;2.53;0.77;;;17.10;99.90;;;;;;5036651;28;20109;-68
2022/05/25 12:39:42;;;;;;;2.50;1.17;;;17.20;99.90;;;;;;5019470;28;20418;-65
2022/05/25 12:42:23;;;;;;;4.63;0.85;;;17.30;99.90;;;;;;5036189;28;20045;-67
2022/05/25 12:50:54;;;;;;;2.45;1.00;;;17.20;99.90;;;;;;5036995;28;20053;-68
2022/05/25 12:53:38;;;;;;;4.03;0.90;;;17.40;99.90;;;;;;5039411;28;20138;-64
2022/05/25 12:56:19;;;;;;;3.53;0.75;;;17.50;99.90;;;;;;5033659;28;20087;-67
2022/05/25 12:58:48;;;;;;;6.20;0.82;;;17.40;99.90;;;;;;5040430;28;20048;-65
2022/05/25 13:01:22;;;;;;;3.63;0.70;;;17.40;99.90;;;;;;5039899;28;20505;-69
2022/05/25 13:03:48;;;;;;;4.93;0.73;;;17.50;99.90;;;;;;5038618;28;20490;-65
2022/05/25 13:06:17;;;;;;;5.03;0.60;;;17.50;99.90;;;;;;5039708;28;20052;-64
2022/05/25 13:08:52;;;;;;;3.72;2.00;;;17.60;99.90;;;;;;5044083;28;20127;-66
2022/05/25 13:11:32;;;;;;;3.65;0.43;;;17.60;99.90;;;;;;5041872;28;20098;-63
2022/05/25 13:14:20;;;;;;;4.68;0.80;;;17.50;99.90;;;;;;5042692;28;20041;-66
2022/05/25 13:16:45;;;;;;;3.22;0.77;;;17.60;99.90;;;;;;5006051;28;20064;-66
2022/05/25 13:19:32;;;;;;;3.20;0.90;;;17.80;99.90;;;;;;5037422;28;20489;-66
2022/05/25 13:22:04;;;;;;;8.70;0.85;;;17.70;99.90;;;;;;5042083;28;20048;-65
2022/05/25 13:24:51;;;;;;;4.63;0.82;;;17.60;99.90;;;;;;5043992;28;20036;-66
2022/05/25 13:27:16;;;;;;;2.63;0.60;;;17.80;99.90;;;;;;5040363;28;20036;-65
2022/05/25 13:30:04;;;;;;;4.65;0.60;;;17.70;99.90;;;;;;5040002;28;20520;-65
2022/05/25 13:32:59;;;;;;;5.05;0.80;;;17.70;99.90;;;;;;5042669;28;20529;-65
2022/05/25 13:35:24;;;;;;;6.18;0.80;;;17.60;99.90;;;;;;5040302;28;20064;-65
2022/05/25 13:38:28;;;;;;;2.60;0.65;;;17.60;99.90;;;;;;5041586;28;20562;-65
2022/05/25 13:41:01;;;;;;;4.43;0.77;;;17.60;99.90;;;;;;4987375;28;20068;-64
2022/05/25 13:43:51;;;;;;;6.75;0.85;;;17.50;99.90;;;;;;5043160;28;20037;-64
2022/05/25 13:46:47;;;;;;;2.38;0.85;;;17.40;99.90;;;;;;5041468;28;20087;-64
2022/05/25 13:49:38;;;;;;;5.95;1.08;;;17.60;99.90;;;;;;5041900;28;20664;-64
2022/05/25 13:52:19;;;;;;;2.72;0.60;;;17.60;99.90;;;;;;5043304;28;20459;-64
2022/05/25 13:54:56;;;;;;;3.90;0.88;;;17.60;99.90;;;;;;5041996;28;20056;-64
2022/05/25 13:57:21;;;;;;;7.28;0.70;;;17.40;99.90;;;;;;5043507;28;20055;-63
2022/05/25 13:59:47;;;;;;;2.88;0.70;;;17.70;99.90;;;;;;5042184;28;20052;-63